Time;durP1;ratioP1;P1;durP2;ratioP2;P2;SDS_P1;SDS_P2;PMS_P1;PMS_P2;Temp;Humidity;BMP_temperature;BMP_pressure;BME280_temperature;BME280_humidity;BME280_pressure;Samples;Min_cycle;Max_cycle;Signal;HPM_P1;HPM_P2
2022/09/28 00:01:20;;;;;;;8.70;5.75;;;7.20;99.90;;;;;;4984737;28;20367;-61
2022/09/28 00:03:48;;;;;;;8.25;5.82;;;7.20;99.90;;;;;;4984423;28;20070;-61
2022/09/28 00:06:17;;;;;;;7.38;5.60;;;7.20;99.90;;;;;;4990716;28;20552;-61
2022/09/28 00:08:43;;;;;;;8.23;5.97;;;7.10;99.90;;;;;;4986899;28;20572;-60
2022/09/28 00:11:12;;;;;;;9.98;5.75;;;7.10;99.90;;;;;;4983289;28;20035;-60
2022/09/28 00:13:39;;;;;;;7.75;5.68;;;7.10;99.90;;;;;;4984058;28;20081;-59
2022/09/28 00:16:11;;;;;;;8.55;6.03;;;7.10;99.90;;;;;;4983518;28;20069;-61
2022/09/28 00:18:37;;;;;;;8.73;6.93;;;7.00;99.90;;;;;;4983513;28;20054;-61
2022/09/28 00:21:11;;;;;;;8.20;5.90;;;7.10;99.90;;;;;;4983226;28;20042;-61
2022/09/28 00:26:22;;;;;;;8.93;6.40;;;6.90;99.90;;;;;;4987502;28;20053;-61
2022/09/28 00:28:51;;;;;;;9.52;6.45;;;6.90;99.90;;;;;;4987328;28;20042;-61
2022/09/28 00:31:17;;;;;;;7.97;6.43;;;6.90;99.90;;;;;;4987538;28;20046;-60
2022/09/28 00:33:43;;;;;;;8.32;6.47;;;6.90;99.90;;;;;;4987198;28;20077;-61
2022/09/28 00:36:09;;;;;;;11.43;6.63;;;6.80;99.90;;;;;;4986069;28;20050;-60
2022/09/28 00:38:35;;;;;;;9.18;6.93;;;6.80;99.90;;;;;;4968800;28;20133;-58
2022/09/28 00:41:00;;;;;;;8.88;6.75;;;6.90;99.90;;;;;;4986925;28;20535;-60
2022/09/28 00:43:26;;;;;;;9.98;6.75;;;6.80;99.90;;;;;;4987546;28;20074;-59
2022/09/28 00:46:01;;;;;;;10.02;7.10;;;6.70;99.90;;;;;;5002322;28;20049;-61
2022/09/28 00:48:30;;;;;;;9.40;7.07;;;6.70;99.90;;;;;;4986636;28;20082;-59
2022/09/28 00:50:57;;;;;;;10.60;7.40;;;6.70;99.90;;;;;;4987589;28;20436;-61
2022/09/28 00:53:29;;;;;;;9.40;7.72;;;6.70;99.90;;;;;;4986728;28;20085;-60
2022/09/28 00:55:59;;;;;;;10.73;8.23;;;6.60;99.90;;;;;;4986732;28;20319;-61
2022/09/28 00:58:30;;;;;;;10.13;8.15;;;6.60;99.90;;;;;;4987275;28;20045;-60
2022/09/28 01:00:58;;;;;;;11.32;7.95;;;6.60;99.90;;;;;;4987273;28;20038;-60
2022/09/28 01:03:25;;;;;;;10.63;7.90;;;6.60;99.90;;;;;;4986942;28;20184;-60
2022/09/28 01:05:52;;;;;;;9.25;8.23;;;6.60;99.90;;;;;;4990959;28;20085;-60
2022/09/28 01:08:20;;;;;;;11.95;8.55;;;6.50;99.90;;;;;;4992952;28;20098;-61
2022/09/28 01:10:47;;;;;;;12.55;9.10;;;6.50;99.90;;;;;;4984757;28;20050;-60
2022/09/28 01:13:15;;;;;;;9.77;8.20;;;6.50;99.90;;;;;;4986393;28;20050;-60
2022/09/28 01:16:06;;;;;;;12.85;8.93;;;6.50;99.90;;;;;;4986199;28;20101;-59
2022/09/28 01:18:44;;;;;;;14.68;8.35;;;6.40;99.90;;;;;;4986529;28;20141;-61
2022/09/28 01:21:21;;;;;;;13.57;8.98;;;6.40;99.90;;;;;;5001961;28;20051;-60
2022/09/28 01:24:10;;;;;;;11.98;8.88;;;6.50;99.90;;;;;;4984393;28;20086;-60
2022/09/28 01:26:55;;;;;;;14.10;8.68;;;6.40;99.90;;;;;;4984295;28;20046;-60
2022/09/28 01:29:36;;;;;;;13.38;9.15;;;6.40;99.90;;;;;;4987255;28;20061;-61
2022/09/28 01:32:31;;;;;;;9.90;8.50;;;6.40;99.90;;;;;;4986732;28;20053;-61
2022/09/28 01:35:28;;;;;;;13.05;9.43;;;6.40;99.90;;;;;;4985732;28;20457;-60
2022/09/28 01:38:06;;;;;;;10.50;7.68;;;6.40;99.90;;;;;;4986294;28;20121;-60
2022/09/28 01:40:33;;;;;;;10.73;8.48;;;6.30;99.90;;;;;;4985957;28;20050;-60
2022/09/28 01:43:24;;;;;;;12.10;8.93;;;6.20;99.90;;;;;;4986680;28;20385;-60
2022/09/28 01:46:05;;;;;;;10.73;7.82;;;6.30;99.90;;;;;;4985654;28;20077;-60
2022/09/28 01:48:34;;;;;;;13.75;8.45;;;6.10;99.90;;;;;;4986540;28;20104;-61
2022/09/28 01:51:04;;;;;;;9.75;8.07;;;6.10;99.90;;;;;;4986258;28;20034;-60
2022/09/28 01:53:36;;;;;;;10.90;8.50;;;6.10;99.90;;;;;;4986142;28;20485;-61
2022/09/28 01:56:14;;;;;;;10.95;8.50;;;6.10;99.90;;;;;;4985976;28;20046;-61
2022/09/28 01:59:06;;;;;;;13.27;8.50;;;6.00;99.90;;;;;;4985963;28;20069;-60
2022/09/28 02:02:01;;;;;;;10.23;8.80;;;6.00;99.90;;;;;;4977002;28;20176;-61
2022/09/28 02:04:56;;;;;;;12.15;8.25;;;5.90;99.90;;;;;;4973314;28;20453;-61
2022/09/28 02:07:53;;;;;;;10.82;7.40;;;6.00;99.90;;;;;;4994693;28;20061;-60
2022/09/28 02:10:23;;;;;;;11.43;8.68;;;6.00;99.90;;;;;;4972003;28;20057;-61
2022/09/28 02:13:03;;;;;;;12.57;7.93;;;6.00;99.90;;;;;;5005236;28;20060;-61
2022/09/28 02:15:58;;;;;;;11.55;8.48;;;5.90;99.90;;;;;;5004120;28;20050;-60
2022/09/28 02:18:24;;;;;;;10.40;7.90;;;6.00;99.90;;;;;;5005202;28;20116;-60
2022/09/28 02:21:05;;;;;;;10.40;7.65;;;6.00;99.90;;;;;;5121209;22;20266;-61
2022/09/28 02:23:35;;;;;;;9.43;7.50;;;5.90;99.90;;;;;;5064012;28;20049;-57
2022/09/28 02:26:05;;;;;;;10.93;7.45;;;6.00;99.90;;;;;;5064230;28;20292;-61
2022/09/28 02:28:31;;;;;;;8.82;7.38;;;6.00;99.90;;;;;;5065425;28;20053;-60
2022/09/28 02:30:56;;;;;;;11.48;8.20;;;6.50;99.90;;;;;;5065127;28;20063;-62
2022/09/28 02:33:39;;;;;;;12.15;8.05;;;5.90;99.90;;;;;;5064270;28;20130;-60
2022/09/28 02:36:05;;;;;;;12.77;8.85;;;5.80;99.90;;;;;;5064314;28;20184;-60
2022/09/28 02:38:31;;;;;;;12.32;9.10;;;5.60;99.90;;;;;;5064303;28;20053;-60
2022/09/28 02:41:44;;;;;;;12.90;9.20;;;5.60;99.90;;;;;;5063520;28;20106;-60
2022/09/28 02:44:50;;;;;;;12.13;8.93;;;5.60;99.90;;;;;;5060808;28;20457;-60
2022/09/28 02:47:24;;;;;;;12.48;9.35;;;5.60;99.90;;;;;;5064041;28;20140;-59
2022/09/28 02:49:53;;;;;;;11.93;9.25;;;5.60;99.90;;;;;;5064211;28;20527;-60
2022/09/28 02:52:21;;;;;;;14.82;9.90;;;5.80;99.90;;;;;;5064077;28;20052;-60
2022/09/28 02:54:53;;;;;;;14.60;10.15;;;5.60;99.90;;;;;;5063256;28;20120;-59
2022/09/28 02:57:42;;;;;;;15.18;10.30;;;5.60;99.90;;;;;;5064545;28;20033;-60
2022/09/28 03:00:15;;;;;;;47.63;11.55;;;5.70;99.90;;;;;;5064039;28;20041;-59
2022/09/28 03:02:59;;;;;;;46.00;12.57;;;5.70;99.90;;;;;;5064394;28;20078;-60
2022/09/28 03:05:36;;;;;;;83.43;14.60;;;5.70;99.90;;;;;;5059721;28;20214;-60
2022/09/28 03:08:10;;;;;;;72.68;13.82;;;5.80;99.90;;;;;;5052731;28;20045;-60
2022/09/28 03:10:58;;;;;;;71.95;12.85;;;5.70;99.90;;;;;;5044212;28;20059;-60
2022/09/28 03:13:26;;;;;;;29.55;11.85;;;5.70;99.90;;;;;;5044318;28;20118;-61
2022/09/28 03:15:51;;;;;;;24.20;12.20;;;5.70;99.90;;;;;;5043362;28;20036;-59
2022/09/28 03:18:17;;;;;;;21.85;12.32;;;5.80;99.90;;;;;;5044019;28;20052;-60
2022/09/28 03:20:43;;;;;;;17.35;11.65;;;5.80;99.90;;;;;;5043733;28;20053;-60
2022/09/28 03:23:09;;;;;;;20.25;10.82;;;6.30;99.90;;;;;;5043027;28;20529;-61
2022/09/28 03:25:34;;;;;;;24.27;11.88;;;5.90;99.90;;;;;;5044015;28;20070;-61
2022/09/28 03:28:00;;;;;;;22.25;12.73;;;5.90;99.90;;;;;;5042403;28;20706;-59
2022/09/28 03:30:26;;;;;;;17.25;11.55;;;6.00;99.90;;;;;;5044650;28;21255;-61
2022/09/28 03:32:59;;;;;;;28.80;12.77;;;5.90;99.90;;;;;;5042909;28;20164;-59
2022/09/28 03:35:25;;;;;;;26.75;13.38;;;6.00;99.90;;;;;;5043284;28;20556;-61
2022/09/28 03:37:54;;;;;;;84.13;15.93;;;6.00;99.90;;;;;;5042837;28;20052;-60
2022/09/28 03:40:20;;;;;;;105.03;16.98;;;6.00;99.90;;;;;;5042886;28;20651;-59
2022/09/28 03:42:46;;;;;;;52.38;15.38;;;6.00;99.90;;;;;;5044011;28;20080;-60
2022/09/28 03:45:11;;;;;;;66.85;18.00;;;6.00;99.90;;;;;;5043377;28;20609;-61
2022/09/28 03:47:37;;;;;;;52.30;16.85;;;6.10;99.90;;;;;;5043151;28;20108;-58
2022/09/28 03:50:03;;;;;;;114.55;17.25;;;6.10;99.90;;;;;;5043831;28;20044;-57
2022/09/28 03:52:28;;;;;;;118.72;17.00;;;6.10;99.90;;;;;;5043700;28;20112;-60
2022/09/28 03:54:54;;;;;;;63.83;15.52;;;6.10;99.90;;;;;;5042757;28;20479;-61
2022/09/28 03:57:20;;;;;;;34.20;14.63;;;6.10;99.90;;;;;;5042725;28;20075;-60
2022/09/28 03:59:45;;;;;;;74.25;14.52;;;6.20;99.90;;;;;;5047325;28;20099;-60
2022/09/28 04:02:11;;;;;;;136.07;15.73;;;6.10;99.90;;;;;;5047269;28;20064;-61
2022/09/28 04:04:37;;;;;;;95.57;15.73;;;6.00;99.90;;;;;;5047126;28;20048;-60
2022/09/28 04:07:02;;;;;;;25.70;11.55;;;6.00;99.90;;;;;;5059144;28;20475;-60
2022/09/28 04:09:28;;;;;;;61.92;14.50;;;5.80;99.90;;;;;;5046339;28;20052;-61
2022/09/28 04:11:54;;;;;;;154.88;15.45;;;5.80;99.90;;;;;;5047409;28;20052;-61
2022/09/28 04:14:19;;;;;;;34.15;12.68;;;5.90;99.90;;;;;;5046749;28;20041;-59
2022/09/28 04:16:46;;;;;;;117.97;16.27;;;5.80;99.90;;;;;;5047301;28;20049;-61
2022/09/28 04:19:12;;;;;;;29.33;13.35;;;5.80;99.90;;;;;;5047785;28;20154;-61
2022/09/28 04:21:38;;;;;;;40.70;14.45;;;5.70;99.90;;;;;;5045955;28;20056;-61
2022/09/28 04:24:04;;;;;;;39.28;13.73;;;5.70;99.90;;;;;;5047152;28;20041;-61
2022/09/28 04:26:30;;;;;;;54.55;14.90;;;5.70;99.90;;;;;;5047440;28;20075;-61
2022/09/28 04:31:52;;;;;;;169.93;18.30;;;5.70;99.90;;;;;;5046815;28;20091;-60
2022/09/28 04:34:20;;;;;;;143.98;17.85;;;5.60;99.90;;;;;;5046167;28;20063;-61
2022/09/28 04:36:46;;;;;;;32.45;15.20;;;5.60;99.90;;;;;;5047098;28;20091;-61
2022/09/28 04:39:13;;;;;;;52.92;15.30;;;5.60;99.90;;;;;;5045992;28;20088;-59
2022/09/28 04:41:40;;;;;;;28.95;14.77;;;5.50;99.90;;;;;;5046960;28;20047;-60
2022/09/28 04:44:06;;;;;;;73.80;17.70;;;6.00;99.90;;;;;;5047362;28;20049;-61
2022/09/28 04:46:32;;;;;;;51.58;15.40;;;5.50;99.90;;;;;;5046823;28;20055;-60
2022/09/28 04:48:58;;;;;;;65.68;16.20;;;5.60;99.90;;;;;;5045652;28;20049;-60
2022/09/28 04:51:23;;;;;;;182.35;18.13;;;5.50;99.90;;;;;;5046699;28;20048;-60
2022/09/28 04:53:49;;;;;;;62.05;15.82;;;5.50;99.90;;;;;;5045086;28;20071;-61
2022/09/28 04:56:16;;;;;;;148.35;18.52;;;5.50;99.90;;;;;;5046812;28;20142;-59
2022/09/28 04:58:42;;;;;;;126.90;18.75;;;5.60;99.90;;;;;;5045961;28;20061;-61
2022/09/28 05:01:12;;;;;;;163.38;17.73;;;5.50;99.90;;;;;;5047009;28;20041;-60
2022/09/28 05:03:38;;;;;;;145.55;17.98;;;5.60;99.90;;;;;;5047074;28;20123;-61
2022/09/28 05:06:05;;;;;;;104.53;17.35;;;5.70;99.90;;;;;;5051854;28;20032;-61
2022/09/28 05:08:32;;;;;;;174.57;18.15;;;5.40;99.90;;;;;;5048851;28;20049;-60
2022/09/28 05:11:06;;;;;;;151.88;17.65;;;5.40;99.90;;;;;;5046409;28;20033;-60
2022/09/28 05:13:34;;;;;;;112.97;16.70;;;5.40;99.90;;;;;;5045975;28;20056;-60
2022/09/28 05:16:00;;;;;;;78.32;16.60;;;5.30;99.90;;;;;;5045975;28;20408;-59
2022/09/28 05:18:26;;;;;;;93.15;16.25;;;5.20;99.90;;;;;;5045742;28;20036;-61
2022/09/28 05:20:52;;;;;;;55.30;15.50;;;5.20;99.90;;;;;;5045017;28;20060;-61
2022/09/28 05:23:17;;;;;;;63.90;14.98;;;5.20;99.90;;;;;;5044622;28;20080;-60
2022/09/28 05:25:46;;;;;;;53.83;15.13;;;5.50;99.90;;;;;;5045781;28;20398;-61
2022/09/28 05:28:12;;;;;;;45.03;13.18;;;5.30;99.90;;;;;;5045800;28;20052;-61
2022/09/28 05:30:38;;;;;;;66.63;13.65;;;5.10;99.90;;;;;;5044831;28;20218;-60
2022/09/28 05:33:04;;;;;;;60.80;13.43;;;5.00;99.90;;;;;;5046272;28;20052;-60
2022/09/28 05:35:30;;;;;;;65.07;13.02;;;5.10;99.90;;;;;;5045473;28;20045;-61
2022/09/28 05:38:01;;;;;;;73.03;12.88;;;4.90;99.90;;;;;;5044643;28;20037;-61
2022/09/28 05:40:26;;;;;;;22.33;10.98;;;4.70;99.90;;;;;;5045587;28;20594;-60
2022/09/28 05:42:52;;;;;;;23.08;10.80;;;4.80;99.90;;;;;;5044508;28;20078;-61
2022/09/28 05:45:17;;;;;;;101.78;13.52;;;4.70;99.90;;;;;;5045306;28;20434;-61
2022/09/28 05:47:45;;;;;;;46.40;12.32;;;4.80;99.90;;;;;;5046124;28;20531;-60
2022/09/28 05:50:11;;;;;;;36.88;12.32;;;4.70;99.90;;;;;;5045435;28;20040;-61
2022/09/28 05:52:37;;;;;;;40.75;11.77;;;4.90;99.90;;;;;;5045058;28;20040;-60
2022/09/28 05:55:05;;;;;;;24.50;10.75;;;5.20;99.90;;;;;;5044791;28;20522;-61
2022/09/28 05:57:31;;;;;;;32.05;10.82;;;4.70;99.90;;;;;;5044077;28;20049;-61
2022/09/28 05:59:56;;;;;;;34.78;10.07;;;4.80;99.90;;;;;;5045363;28;20037;-64
2022/09/28 06:02:22;;;;;;;24.30;10.68;;;4.70;99.90;;;;;;5044612;28;20037;-61
2022/09/28 06:04:50;;;;;;;25.17;9.80;;;4.70;99.90;;;;;;5045539;28;20045;-62
2022/09/28 06:07:16;;;;;;;51.05;10.82;;;4.60;99.90;;;;;;5045093;28;20128;-61
2022/09/28 06:09:42;;;;;;;44.03;11.18;;;4.70;99.90;;;;;;5043391;28;20045;-61
2022/09/28 06:12:08;;;;;;;21.45;11.20;;;4.70;99.90;;;;;;5045380;28;20090;-62
2022/09/28 06:14:33;;;;;;;33.63;11.52;;;4.60;99.90;;;;;;5044730;28;20072;-62
2022/09/28 06:16:59;;;;;;;37.80;10.90;;;4.70;99.90;;;;;;5044634;28;20670;-61
2022/09/28 06:19:25;;;;;;;69.40;10.88;;;4.80;99.90;;;;;;5043274;28;20055;-62
2022/09/28 06:21:50;;;;;;;88.20;12.98;;;4.90;99.90;;;;;;5044370;28;20527;-62
2022/09/28 06:24:16;;;;;;;97.00;12.25;;;4.80;99.90;;;;;;5044233;28;20047;-62
2022/09/28 06:26:42;;;;;;;57.80;10.95;;;4.60;99.90;;;;;;5044835;28;20056;-60
2022/09/28 06:29:07;;;;;;;28.08;8.85;;;4.70;99.90;;;;;;5045293;28;20044;-62
2022/09/28 06:31:33;;;;;;;95.90;11.75;;;4.60;99.90;;;;;;5045112;28;20682;-63
2022/09/28 06:34:00;;;;;;;77.72;11.30;;;4.40;99.90;;;;;;5044080;28;20245;-61
2022/09/28 06:36:30;;;;;;;24.92;9.30;;;4.50;99.90;;;;;;5043421;28;20044;-62
2022/09/28 06:38:56;;;;;;;28.45;8.82;;;5.30;99.90;;;;;;5043449;28;20527;-61
2022/09/28 06:41:21;;;;;;;116.40;12.60;;;4.30;99.90;;;;;;5043593;28;20076;-62
2022/09/28 06:43:48;;;;;;;159.90;13.10;;;4.40;99.90;;;;;;5043273;28;20516;-64
2022/09/28 06:46:14;;;;;;;74.72;11.88;;;4.40;99.90;;;;;;5044024;28;20116;-61
2022/09/28 06:48:39;;;;;;;62.05;11.35;;;4.40;99.90;;;;;;5044241;28;20124;-62
2022/09/28 06:51:05;;;;;;;108.10;12.65;;;4.30;99.90;;;;;;5043351;28;20045;-61
2022/09/28 06:53:31;;;;;;;111.03;12.43;;;4.30;99.90;;;;;;5042929;28;20067;-62
2022/09/28 06:55:57;;;;;;;87.20;13.48;;;4.30;99.90;;;;;;5043971;28;20048;-61
2022/09/28 06:58:25;;;;;;;82.57;12.77;;;4.30;99.90;;;;;;5043740;28;20060;-62
2022/09/28 07:00:51;;;;;;;27.23;11.75;;;4.60;99.90;;;;;;5043292;28;20040;-62
2022/09/28 07:03:19;;;;;;;75.18;13.93;;;4.30;99.90;;;;;;5044422;28;20051;-61
2022/09/28 07:05:51;;;;;;;57.08;13.13;;;4.80;99.90;;;;;;5048259;28;20048;-62
2022/09/28 07:08:19;;;;;;;63.85;12.55;;;4.40;99.90;;;;;;5050249;28;20132;-61
2022/09/28 07:10:46;;;;;;;62.33;11.75;;;4.40;99.90;;;;;;5045220;28;20255;-63
2022/09/28 07:13:14;;;;;;;45.70;11.35;;;4.30;99.90;;;;;;5044152;28;20066;-63
2022/09/28 07:15:39;;;;;;;60.63;10.20;;;4.50;99.90;;;;;;5043303;28;20177;-62
2022/09/28 07:18:06;;;;;;;13.13;7.38;;;4.60;99.90;;;;;;5044392;28;20044;-62
2022/09/28 07:20:34;;;;;;;42.88;10.05;;;4.40;99.90;;;;;;5044491;28;20510;-62
2022/09/28 07:23:02;;;;;;;68.72;12.63;;;4.50;99.90;;;;;;5042866;28;20056;-62
2022/09/28 07:25:29;;;;;;;86.90;11.73;;;4.60;99.90;;;;;;5043621;28;20522;-63
2022/09/28 07:28:03;;;;;;;29.85;11.18;;;5.00;99.90;;;;;;5044237;28;20525;-62
2022/09/28 07:30:32;;;;;;;99.55;11.68;;;4.70;99.90;;;;;;5043173;28;20037;-63
2022/09/28 07:33:04;;;;;;;107.82;12.15;;;4.60;99.90;;;;;;5043007;28;20099;-62
2022/09/28 07:35:33;;;;;;;134.13;14.48;;;4.60;99.90;;;;;;5041995;28;20041;-63
2022/09/28 07:38:06;;;;;;;110.60;12.57;;;4.70;99.90;;;;;;5042436;28;20087;-62
2022/09/28 07:43:19;;;;;;;41.35;12.02;;;4.60;99.90;;;;;;5044091;28;20403;-62
2022/09/28 07:45:47;;;;;;;108.65;13.07;;;4.70;99.90;;;;;;5044134;28;20115;-63
2022/09/28 07:48:15;;;;;;;27.85;10.27;;;4.70;99.90;;;;;;5043822;28;20056;-60
2022/09/28 07:50:55;;;;;;;40.85;12.40;;;4.70;99.90;;;;;;5041566;28;20053;-62
2022/09/28 07:53:23;;;;;;;41.47;14.13;;;4.90;99.90;;;;;;5043190;28;20133;-62
2022/09/28 07:55:53;;;;;;;101.15;14.05;;;4.90;99.90;;;;;;5041859;28;20064;-62
2022/09/28 07:58:19;;;;;;;82.03;13.30;;;5.10;99.90;;;;;;5043988;28;20076;-61
2022/09/28 08:00:47;;;;;;;45.40;13.00;;;5.30;99.90;;;;;;5042244;28;20542;-63
2022/09/28 08:03:14;;;;;;;21.65;12.32;;;5.30;99.90;;;;;;5042937;28;20110;-63
2022/09/28 08:05:41;;;;;;;19.38;10.93;;;5.50;99.90;;;;;;5044639;28;20036;-63
2022/09/28 08:08:07;;;;;;;21.52;12.05;;;5.60;99.90;;;;;;5051081;28;20076;-62
2022/09/28 08:10:33;;;;;;;27.75;12.45;;;6.00;99.90;;;;;;5043303;28;20048;-62
2022/09/28 08:13:02;;;;;;;23.90;12.85;;;6.20;99.90;;;;;;5043309;28;20044;-62
2022/09/28 08:15:35;;;;;;;49.55;14.65;;;6.10;99.90;;;;;;5042999;28;20041;-63
2022/09/28 08:18:00;;;;;;;19.92;13.25;;;6.40;99.90;;;;;;5042956;28;20045;-60
2022/09/28 08:23:10;;;;;;;26.60;16.10;;;6.70;99.90;;;;;;5043365;28;20106;-62
2022/09/28 08:25:37;;;;;;;22.00;16.77;;;6.80;99.90;;;;;;5043335;28;20033;-62
2022/09/28 08:28:05;;;;;;;22.75;16.25;;;6.90;99.90;;;;;;5042144;28;20079;-62
2022/09/28 08:30:30;;;;;;;20.88;16.45;;;7.00;99.90;;;;;;5042814;28;20041;-63
2022/09/28 08:32:56;;;;;;;23.92;17.92;;;7.00;99.90;;;;;;5042516;28;20911;-61
2022/09/28 08:35:25;;;;;;;27.55;17.63;;;7.00;99.90;;;;;;5043316;28;20041;-62
2022/09/28 08:37:53;;;;;;;25.10;17.75;;;7.20;99.90;;;;;;5042875;28;20056;-63
2022/09/28 08:40:23;;;;;;;25.50;18.00;;;7.40;99.90;;;;;;5042579;28;20060;-63
2022/09/28 08:42:53;;;;;;;18.30;16.05;;;7.50;99.90;;;;;;5043063;28;20110;-63
2022/09/28 08:45:26;;;;;;;20.38;17.20;;;7.50;99.90;;;;;;5046328;28;20044;-63
2022/09/28 08:51:05;;;;;;;18.77;15.02;;;7.70;99.90;;;;;;5046046;28;20110;-63
2022/09/28 08:53:49;;;;;;;25.20;16.10;;;7.80;99.90;;;;;;5046366;28;20056;-63
2022/09/28 08:56:55;;;;;;;19.67;15.63;;;8.00;99.90;;;;;;5045891;28;20107;-61
2022/09/28 08:59:23;;;;;;;;;;;8.00;99.90;;;;;;5046456;28;20081;-63
2022/09/28 09:01:59;;;;;;;18.95;13.73;;;8.00;99.90;;;;;;5046231;28;19917;-63
2022/09/28 09:04:25;;;;;;;18.25;12.95;;;7.90;99.90;;;;;;5047227;28;20091;-62
2022/09/28 09:07:16;;;;;;;36.83;14.95;;;7.70;99.90;;;;;;5056809;28;20087;-63
2022/09/28 09:10:11;;;;;;;16.88;13.77;;;8.00;99.90;;;;;;5061739;28;20048;-63
2022/09/28 09:12:43;;;;;;;17.70;13.52;;;8.00;99.90;;;;;;5046457;28;20041;-61
2022/09/28 09:15:47;;;;;;;26.60;15.10;;;8.10;99.90;;;;;;5045908;28;20049;-63
2022/09/28 09:18:26;;;;;;;14.93;13.30;;;8.30;99.90;;;;;;5044762;28;20045;-62
2022/09/28 09:20:56;;;;;;;17.30;12.35;;;8.30;99.90;;;;;;5044910;28;20063;-63
2022/09/28 09:23:34;;;;;;;15.85;12.15;;;8.40;99.90;;;;;;5046272;28;20125;-63
2022/09/28 09:26:25;;;;;;;15.50;12.80;;;8.50;99.90;;;;;;5044119;28;20237;-62
2022/09/28 09:29:35;;;;;;;13.98;12.00;;;9.00;99.90;;;;;;5045389;28;20742;-62
2022/09/28 09:32:40;;;;;;;15.20;12.13;;;9.00;99.90;;;;;;5046133;28;20037;-63
2022/09/28 09:35:29;;;;;;;12.65;11.35;;;9.20;99.90;;;;;;4983588;28;20472;-63
2022/09/28 09:38:26;;;;;;;18.92;13.30;;;9.10;99.90;;;;;;5041362;28;20057;-63
2022/09/28 09:41:40;;;;;;;12.82;11.25;;;9.20;99.90;;;;;;5014403;28;20622;-63
2022/09/28 09:44:32;;;;;;;12.50;9.80;;;9.20;99.90;;;;;;5039638;28;20060;-63
2022/09/28 09:47:08;;;;;;;9.13;7.80;;;9.00;99.90;;;;;;5045974;28;20040;-61
2022/09/28 09:49:38;;;;;;;8.18;7.15;;;9.00;99.90;;;;;;5045509;28;20045;-63
2022/09/28 09:52:23;;;;;;;9.00;8.10;;;9.10;99.90;;;;;;5044769;28;20078;-63
2022/09/28 09:54:57;;;;;;;9.47;7.63;;;9.30;99.90;;;;;;5044478;28;20862;-63
2022/09/28 09:57:28;;;;;;;9.40;7.88;;;9.20;99.90;;;;;;5045226;28;20045;-63
2022/09/28 09:59:56;;;;;;;10.65;8.32;;;9.20;99.90;;;;;;5044876;28;20079;-63
2022/09/28 10:02:27;;;;;;;9.20;8.02;;;9.10;99.90;;;;;;5045383;28;20922;-63
2022/09/28 10:05:11;;;;;;;9.40;7.95;;;9.30;99.90;;;;;;5044691;28;20102;-62
2022/09/28 10:07:55;;;;;;;10.40;7.88;;;9.40;99.90;;;;;;5053155;28;20041;-60
2022/09/28 10:10:35;;;;;;;9.00;7.38;;;9.40;99.90;;;;;;5045528;28;20128;-62
2022/09/28 10:13:02;;;;;;;7.18;5.88;;;9.70;99.90;;;;;;5045548;28;20052;-64
2022/09/28 10:15:30;;;;;;;8.90;6.25;;;9.80;99.90;;;;;;5044873;28;20133;-63
2022/09/28 10:18:02;;;;;;;7.65;6.30;;;9.60;99.90;;;;;;5043889;28;20063;-60
2022/09/28 10:20:33;;;;;;;7.70;6.90;;;9.80;99.90;;;;;;5045613;28;20115;-62
2022/09/28 10:23:01;;;;;;;7.97;6.63;;;9.80;99.90;;;;;;5044867;28;20102;-62
2022/09/28 10:25:32;;;;;;;7.20;6.47;;;9.90;99.90;;;;;;5044808;28;20083;-62
2022/09/28 10:28:00;;;;;;;7.88;6.28;;;10.30;99.90;;;;;;5045539;28;20087;-63
2022/09/28 10:30:25;;;;;;;7.90;6.45;;;10.40;99.90;;;;;;5044855;28;20653;-63
2022/09/28 10:32:58;;;;;;;7.13;5.90;;;10.40;99.90;;;;;;5044123;28;20048;-63
2022/09/28 10:35:40;;;;;;;6.00;5.40;;;10.40;99.90;;;;;;5044204;28;20057;-63
2022/09/28 10:38:16;;;;;;;8.82;6.18;;;10.80;99.90;;;;;;5043062;28;20041;-62
2022/09/28 10:40:46;;;;;;;6.18;5.57;;;10.70;99.90;;;;;;5044836;28;20127;-63
2022/09/28 10:43:15;;;;;;;5.68;5.05;;;10.90;99.90;;;;;;5044548;28;20045;-63
2022/09/28 10:45:41;;;;;;;6.10;4.72;;;11.50;99.90;;;;;;5044012;28;20051;-63
2022/09/28 10:48:19;;;;;;;5.25;4.28;;;11.60;99.90;;;;;;5044364;28;20049;-62
2022/09/28 10:50:58;;;;;;;5.18;4.60;;;12.00;99.90;;;;;;5042860;28;20055;-64
2022/09/28 10:53:23;;;;;;;5.82;4.72;;;12.10;99.90;;;;;;5043415;28;20262;-62
2022/09/28 10:56:18;;;;;;;5.38;3.80;;;11.90;99.90;;;;;;5042836;28;20061;-62
2022/09/28 10:58:44;;;;;;;4.90;4.28;;;12.30;99.90;;;;;;5059727;28;20437;-61
2022/09/28 11:01:19;;;;;;;5.70;4.03;;;11.60;99.90;;;;;;5043239;28;20044;-62
2022/09/28 11:03:53;;;;;;;5.25;3.80;;;11.80;99.90;;;;;;5042137;28;20049;-62
2022/09/28 11:06:25;;;;;;;5.70;3.60;;;12.10;99.90;;;;;;5051577;28;20395;-63
2022/09/28 11:08:53;;;;;;;4.30;3.45;;;12.30;99.90;;;;;;5045389;28;20434;-63
2022/09/28 11:11:19;;;;;;;4.13;3.38;;;12.50;99.90;;;;;;5042459;28;20045;-63
2022/09/28 11:13:54;;;;;;;5.35;3.20;;;12.90;99.90;;;;;;5059386;28;20231;-62
2022/09/28 11:16:32;;;;;;;3.55;3.03;;;12.80;99.90;;;;;;5042993;28;20135;-62
2022/09/28 11:19:19;;;;;;;7.65;3.72;;;13.00;99.90;;;;;;5044233;28;20080;-63
2022/09/28 11:21:45;;;;;;;5.55;3.95;;;12.90;99.90;;;;;;5043112;28;20045;-63
2022/09/28 11:24:14;;;;;;;6.05;3.30;;;12.90;99.90;;;;;;5043891;28;20510;-63
2022/09/28 11:26:45;;;;;;;5.18;2.78;;;12.50;99.90;;;;;;5043679;28;20053;-63
2022/09/28 11:29:25;;;;;;;4.72;2.90;;;13.30;99.90;;;;;;5043315;28;20049;-62
2022/09/28 11:31:51;;;;;;;3.92;2.85;;;13.50;99.90;;;;;;5044389;28;20055;-62
2022/09/28 11:34:25;;;;;;;6.78;2.85;;;13.30;99.90;;;;;;5043349;28;20092;-62
2022/09/28 11:37:39;;;;;;;5.83;2.90;;;13.40;99.90;;;;;;5043304;28;20610;-63
2022/09/28 11:40:04;;;;;;;3.05;2.10;;;13.30;99.90;;;;;;5009366;28;20060;-62
2022/09/28 11:42:47;;;;;;;3.35;1.98;;;13.10;99.90;;;;;;5044201;28;20426;-62
2022/09/28 11:45:31;;;;;;;2.88;1.90;;;13.00;99.90;;;;;;5043753;28;20047;-62
2022/09/28 11:48:04;;;;;;;2.65;1.90;;;12.70;99.90;;;;;;5043849;28;20045;-63
2022/09/28 11:50:38;;;;;;;3.20;1.70;;;12.80;99.90;;;;;;5043637;28;20041;-63
2022/09/28 11:53:41;;;;;;;7.32;2.92;;;12.80;99.90;;;;;;5043463;28;20459;-62
2022/09/28 11:56:37;;;;;;;3.85;2.15;;;13.30;99.90;;;;;;5043919;28;20052;-62
2022/09/28 11:59:21;;;;;;;2.63;1.55;;;13.60;99.90;;;;;;5043299;28;20052;-63
2022/09/28 12:02:09;;;;;;;2.38;1.23;;;14.00;99.90;;;;;;5043555;28;20044;-61
2022/09/28 12:04:42;;;;;;;1.70;1.10;;;13.90;99.90;;;;;;5042258;28;20053;-60
2022/09/28 12:07:11;;;;;;;3.10;1.30;;;14.20;99.90;;;;;;5051740;28;20090;-60
2022/09/28 12:09:54;;;;;;;2.35;1.30;;;14.30;99.90;;;;;;5043366;28;20535;-63
2022/09/28 12:12:46;;;;;;;2.67;1.00;;;14.10;99.90;;;;;;5043522;28;20072;-60
2022/09/28 12:15:25;;;;;;;3.63;1.27;;;14.20;99.90;;;;;;5043354;28;20052;-61
2022/09/28 12:18:01;;;;;;;3.40;0.90;;;14.30;99.90;;;;;;5042209;28;20377;-60
2022/09/28 12:20:37;;;;;;;4.10;0.98;;;14.00;99.90;;;;;;5046513;28;20114;-61
2022/09/28 12:23:25;;;;;;;2.33;1.10;;;14.20;99.90;;;;;;5045381;28;20142;-60
2022/09/28 12:26:04;;;;;;;2.30;1.10;;;14.00;99.90;;;;;;5046319;28;20633;-63
2022/09/28 12:28:40;;;;;;;2.95;1.50;;;14.20;99.90;;;;;;5044436;28;20562;-63
2022/09/28 12:31:29;;;;;;;2.25;1.30;;;14.20;99.90;;;;;;5046915;28;20040;-62
2022/09/28 12:33:55;;;;;;;1.63;0.93;;;14.60;99.90;;;;;;5045910;28;20083;-62
2022/09/28 12:36:40;;;;;;;1.52;0.70;;;15.10;99.90;;;;;;5046284;28;20049;-60
2022/09/28 12:39:08;;;;;;;2.65;1.00;;;15.30;99.90;;;;;;5046789;28;20048;-62
2022/09/28 12:42:02;;;;;;;2.40;1.00;;;14.70;99.90;;;;;;5046354;28;20423;-59
2022/09/28 12:44:31;;;;;;;2.65;1.13;;;15.00;99.90;;;;;;5045345;28;20077;-59
2022/09/28 12:47:35;;;;;;;2.95;1.00;;;15.30;99.90;;;;;;5046619;28;20055;-60
2022/09/28 12:50:10;;;;;;;2.67;1.25;;;15.60;99.90;;;;;;5046744;28;20056;-61
2022/09/28 12:52:58;;;;;;;2.13;1.00;;;15.70;99.90;;;;;;5046650;28;20235;-61
2022/09/28 12:55:46;;;;;;;1.73;0.70;;;15.50;99.90;;;;;;5046819;28;20053;-60
2022/09/28 12:58:58;;;;;;;1.85;0.90;;;15.90;99.90;;;;;;5045878;28;20136;-61
2022/09/28 13:01:51;;;;;;;1.20;0.75;;;16.30;99.90;;;;;;4983853;28;20050;-61
2022/09/28 13:04:42;;;;;;;4.18;1.25;;;16.50;99.90;;;;;;5046247;28;20037;-61
2022/09/28 13:07:30;;;;;;;3.40;1.10;;;16.20;99.90;;;;;;5057252;28;20052;-61
2022/09/28 13:10:44;;;;;;;3.65;1.08;;;16.00;99.90;;;;;;5045668;28;20099;-61
2022/09/28 13:13:29;;;;;;;1.95;0.85;;;16.00;99.90;;;;;;5032445;28;20056;-61
2022/09/28 13:16:12;;;;;;;2.95;1.00;;;16.00;99.90;;;;;;5045921;28;20448;-61
2022/09/28 13:19:04;;;;;;;2.08;0.82;;;16.40;99.90;;;;;;5044799;28;20211;-61
2022/09/28 13:21:36;;;;;;;2.10;0.90;;;16.40;99.90;;;;;;5044565;28;20385;-62
2022/09/28 13:24:07;;;;;;;2.53;1.00;;;16.50;99.90;;;;;;5046086;28;20053;-62
2022/09/28 13:26:39;;;;;;;1.67;0.70;;;16.60;99.90;;;;;;5045884;28;20044;-61
2022/09/28 13:29:14;;;;;;;2.72;0.90;;;16.10;99.90;;;;;;5044374;28;20049;-61